Terminal Aerodrome Forecast
Issued by NWS Newport/Morehead City, NC

Home | Current Version | Previous Version | Graphics & Text | Print | Product List | Glossary On
Versions: 1 2 3 4 5 6 7 8 9 10 11 12 13 14 15 16 17 18
000
FTUS42 KMHX 262320
TAFEWN
TAF
KEWN 262320Z 2700/2724 20008KT P6SM OVC150
     FM270700 21006KT 5SM -RA BR OVC008
     FM271400 32008G15KT 5SM -RA BR OVC008
     FM271800 03008G15KT 3SM -RA BR OVC005=

USA.gov is the U.S. government's official web portal to all federal, state and local government web resources and services.